Time;durP1;ratioP1;P1;durP2;ratioP2;P2;SDS_P1;SDS_P2;PMS_P1;PMS_P2;Temp;Humidity;BMP_temperature;BMP_pressure;BME280_temperature;BME280_humidity;BME280_pressure;Samples;Min_cycle;Max_cycle;Signal;HPM_P1;HPM_P2
2022/08/21 00:01:12;;;;;;;6.67;4.40;;;;;;;;;;10406818;28;20233;-70
2022/08/21 00:06:13;;;;;;;6.97;4.57;;;;;;;;;;10382694;28;20311;-71
2022/08/21 00:11:14;;;;;;;8.60;5.00;;;;;;;;;;10381382;28;20311;-72
2022/08/21 00:16:15;;;;;;;7.13;4.90;;;;;;;;;;10402457;28;20227;-71
2022/08/21 00:21:16;;;;;;;5.57;4.70;;;;;;;;;;10405946;28;20222;-71
2022/08/21 00:26:17;;;;;;;8.00;4.47;;;;;;;;;;10401408;28;20227;-71
2022/08/21 00:31:18;;;;;;;8.57;4.60;;;;;;;;;;10388435;28;20235;-71
2022/08/21 00:36:19;;;;;;;6.67;4.67;;;;;;;;;;10400781;28;20224;-71
2022/08/21 00:41:20;;;;;;;6.13;4.63;;;;;;;;;;10391742;28;20212;-71
2022/08/21 00:46:21;;;;;;;8.17;5.53;;;;;;;;;;10399639;28;20236;-71
2022/08/21 00:51:26;;;;;;;9.40;5.20;;;;;;;;;;10383701;28;20227;-71
2022/08/21 00:56:28;;;;;;;6.90;5.10;;;;;;;;;;10399993;28;20273;-72
2022/08/21 01:01:29;;;;;;;6.63;5.00;;;;;;;;;;10397593;28;20274;-73
2022/08/21 01:06:30;;;;;;;7.90;5.00;;;;;;;;;;10399112;28;20269;-73
2022/08/21 01:11:31;;;;;;;6.33;5.23;;;;;;;;;;10397520;28;20233;-73
2022/08/21 01:16:33;;;;;;;8.00;5.50;;;;;;;;;;10395695;28;20341;-72
2022/08/21 01:21:37;;;;;;;6.87;5.10;;;;;;;;;;10393808;28;20227;-73
2022/08/21 01:26:39;;;;;;;7.37;5.13;;;;;;;;;;10394064;28;20228;-72
2022/08/21 01:31:40;;;;;;;6.33;4.97;;;;;;;;;;10394557;28;20228;-73
2022/08/21 01:36:42;;;;;;;6.33;5.10;;;;;;;;;;10401726;28;20228;-72
2022/08/21 01:41:43;;;;;;;7.80;5.27;;;;;;;;;;10393754;28;20364;-72
2022/08/21 01:46:44;;;;;;;6.03;5.07;;;;;;;;;;10379250;28;20737;-74
2022/08/21 01:51:48;;;;;;;5.93;4.93;;;;;;;;;;10374996;28;20219;-72
2022/08/21 01:56:51;;;;;;;6.13;5.10;;;;;;;;;;10399982;28;20246;-72
2022/08/21 02:01:53;;;;;;;6.57;5.30;;;;;;;;;;10376667;28;20597;-73
2022/08/21 02:06:54;;;;;;;8.33;4.73;;;;;;;;;;10384378;28;20226;-72
2022/08/21 02:11:56;;;;;;;9.97;5.30;;;;;;;;;;10373525;28;20688;-73
2022/08/21 02:16:57;;;;;;;5.37;4.53;;;;;;;;;;10388703;28;20216;-72
2022/08/21 02:21:58;;;;;;;6.73;4.90;;;;;;;;;;10389174;28;20307;-73
2022/08/21 02:26:59;;;;;;;7.73;5.40;;;;;;;;;;10384454;28;20666;-72
2022/08/21 02:32:00;;;;;;;8.97;5.27;;;;;;;;;;10397775;28;20261;-73
2022/08/21 02:37:01;;;;;;;6.90;5.20;;;;;;;;;;10389108;28;20232;-73
2022/08/21 02:42:02;;;;;;;6.57;5.30;;;;;;;;;;10395292;28;20304;-73
2022/08/21 02:47:03;;;;;;;9.33;5.40;;;;;;;;;;10387694;28;20608;-73
2022/08/21 02:52:05;;;;;;;8.03;4.97;;;;;;;;;;10392331;28;20690;-73
2022/08/21 02:57:06;;;;;;;7.93;5.13;;;;;;;;;;10396521;28;20757;-73
2022/08/21 03:02:07;;;;;;;7.00;4.77;;;;;;;;;;10386088;28;20238;-73
2022/08/21 03:07:08;;;;;;;7.07;5.33;;;;;;;;;;10385114;28;20565;-72
2022/08/21 03:12:09;;;;;;;6.07;5.23;;;;;;;;;;10391239;28;20211;-73
2022/08/21 03:17:13;;;;;;;10.10;5.80;;;;;;;;;;10393002;28;20356;-72
2022/08/21 03:22:17;;;;;;;6.43;5.03;;;;;;;;;;10374102;28;20214;-73
2022/08/21 03:27:18;;;;;;;8.77;5.57;;;;;;;;;;10395231;28;20273;-72
2022/08/21 03:32:20;;;;;;;6.33;5.10;;;;;;;;;;10384395;28;20271;-73
2022/08/21 03:37:21;;;;;;;6.63;5.33;;;;;;;;;;10385720;28;20796;-73
2022/08/21 03:42:23;;;;;;;9.97;5.33;;;;;;;;;;10402856;28;20223;-72
2022/08/21 03:47:24;;;;;;;7.53;5.23;;;;;;;;;;10398464;28;20296;-72
2022/08/21 03:52:25;;;;;;;6.83;4.73;;;;;;;;;;10406045;28;20217;-72
2022/08/21 03:57:26;;;;;;;5.30;4.80;;;;;;;;;;10387676;28;20268;-72
2022/08/21 04:02:27;;;;;;;7.47;5.20;;;;;;;;;;10402149;28;20689;-72
2022/08/21 04:07:28;;;;;;;8.57;5.27;;;;;;;;;;10383812;28;20229;-72
2022/08/21 04:12:30;;;;;;;5.63;5.03;;;;;;;;;;10399434;28;20223;-73
2022/08/21 04:17:31;;;;;;;11.47;5.07;;;;;;;;;;10381576;28;20234;-72
2022/08/21 04:22:31;;;;;;;8.00;5.43;;;;;;;;;;10391860;28;20254;-73
2022/08/21 04:27:32;;;;;;;8.87;5.77;;;;;;;;;;10400804;28;20231;-73
2022/08/21 04:32:34;;;;;;;9.40;5.60;;;;;;;;;;10403701;28;20213;-73
2022/08/21 04:37:36;;;;;;;10.97;5.60;;;;;;;;;;10373734;28;20232;-72
2022/08/21 04:42:44;;;;;;;7.97;4.87;;;;;;;;;;10407015;28;20221;-73
2022/08/21 04:47:45;;;;;;;6.47;5.57;;;;;;;;;;10395729;28;20280;-72
2022/08/21 04:52:47;;;;;;;8.67;5.00;;;;;;;;;;10409240;28;20231;-73
2022/08/21 04:57:49;;;;;;;6.73;4.90;;;;;;;;;;10378438;28;20781;-73
2022/08/21 05:02:54;;;;;;;8.80;5.50;;;;;;;;;;10398224;28;20227;-72
2022/08/21 05:07:56;;;;;;;7.47;5.10;;;;;;;;;;10404970;28;20223;-72
2022/08/21 05:12:57;;;;;;;7.33;4.57;;;;;;;;;;10390169;28;20318;-72
2022/08/21 05:17:58;;;;;;;5.33;4.70;;;;;;;;;;10396608;28;20268;-73
2022/08/21 05:23:02;;;;;;;6.73;4.00;;;;;;;;;;10390489;28;20225;-72
2022/08/21 05:28:06;;;;;;;7.00;4.30;;;;;;;;;;10390907;28;20243;-72
2022/08/21 05:33:10;;;;;;;6.17;4.10;;;;;;;;;;10398986;28;20236;-72
2022/08/21 05:38:11;;;;;;;7.13;4.20;;;;;;;;;;10380710;28;20241;-73
2022/08/21 05:43:12;;;;;;;8.13;4.40;;;;;;;;;;10375409;28;20228;-73
2022/08/21 05:48:23;;;;;;;7.33;4.53;;;;;;;;;;10397741;28;20638;-73
2022/08/21 05:53:25;;;;;;;5.43;3.73;;;;;;;;;;10379495;28;20234;-73
2022/08/21 05:58:26;;;;;;;8.57;4.23;;;;;;;;;;10391577;28;20323;-73
2022/08/21 06:03:30;;;;;;;5.43;3.90;;;;;;;;;;10396374;28;20261;-73
2022/08/21 06:08:31;;;;;;;5.77;3.40;;;;;;;;;;10393331;28;20324;-72
2022/08/21 06:13:33;;;;;;;5.70;3.47;;;;;;;;;;10404699;28;20350;-73
2022/08/21 06:18:35;;;;;;;7.73;3.13;;;;;;;;;;10393037;28;20231;-72
2022/08/21 06:23:36;;;;;;;11.13;3.43;;;;;;;;;;10396668;28;20214;-73
2022/08/21 06:28:37;;;;;;;7.20;3.30;;;;;;;;;;10396023;28;20228;-72
2022/08/21 06:33:38;;;;;;;6.80;3.20;;;;;;;;;;10399830;28;20282;-72
2022/08/21 06:38:39;;;;;;;5.17;3.03;;;;;;;;;;10376893;28;20236;-73
2022/08/21 06:43:40;;;;;;;5.43;3.20;;;;;;;;;;10397298;28;20304;-72
2022/08/21 06:48:41;;;;;;;7.37;3.43;;;;;;;;;;10374373;28;20312;-73
2022/08/21 06:53:42;;;;;;;6.73;3.67;;;;;;;;;;10389890;28;20231;-73
2022/08/21 06:58:43;;;;;;;6.23;3.57;;;;;;;;;;10372987;28;20231;-73
2022/08/21 07:03:44;;;;;;;6.50;3.77;;;;;;;;;;10406381;28;20212;-74
2022/08/21 07:08:45;;;;;;;6.60;3.80;;;;;;;;;;10397132;28;20687;-71
2022/08/21 07:13:46;;;;;;;6.10;3.40;;;;;;;;;;10394606;28;20354;-72
2022/08/21 07:18:48;;;;;;;5.47;3.70;;;;;;;;;;10394105;28;20228;-73
2022/08/21 07:23:50;;;;;;;7.47;3.83;;;;;;;;;;10394256;28;20238;-72
2022/08/21 07:28:52;;;;;;;8.10;3.93;;;;;;;;;;10400077;28;20223;-72
2022/08/21 07:33:53;;;;;;;12.00;4.57;;;;;;;;;;10384883;28;20217;-73
2022/08/21 07:38:54;;;;;;;5.90;3.63;;;;;;;;;;10377350;28;20230;-72
2022/08/21 07:43:59;;;;;;;7.13;3.43;;;;;;;;;;10391554;28;20282;-73
2022/08/21 07:49:00;;;;;;;8.00;3.97;;;;;;;;;;10384506;28;20696;-73
2022/08/21 07:54:08;;;;;;;5.07;3.50;;;;;;;;;;10402695;28;20221;-72
2022/08/21 07:59:12;;;;;;;9.10;4.40;;;;;;;;;;10393559;28;20707;-72
2022/08/21 08:04:15;;;;;;;6.57;4.40;;;;;;;;;;10366930;28;20221;-72
2022/08/21 08:09:16;;;;;;;4.97;3.97;;;;;;;;;;10371386;28;20217;-73
2022/08/21 08:14:17;;;;;;;6.70;4.47;;;;;;;;;;10409473;28;20216;-71
2022/08/21 08:19:18;;;;;;;5.87;4.37;;;;;;;;;;10387848;28;20224;-73
2022/08/21 08:24:19;;;;;;;8.07;4.90;;;;;;;;;;10409130;28;20764;-73
2022/08/21 08:29:21;;;;;;;6.93;3.87;;;;;;;;;;10392093;28;20214;-73
2022/08/21 08:34:22;;;;;;;9.50;4.60;;;;;;;;;;10381900;28;20303;-72
2022/08/21 08:39:23;;;;;;;7.63;4.60;;;;;;;;;;10396074;28;20216;-73
2022/08/21 08:44:24;;;;;;;6.40;3.87;;;;;;;;;;10405880;28;20220;-74
2022/08/21 08:49:40;;;;;;;5.53;3.53;;;;;;;;;;10397717;28;20252;-73
2022/08/21 08:54:48;;;;;;;6.63;4.23;;;;;;;;;;10399379;28;20224;-73
2022/08/21 08:59:56;;;;;;;5.00;4.17;;;;;;;;;;10408244;28;20224;-75
2022/08/21 09:05:07;;;;;;;5.60;3.83;;;;;;;;;;10399009;28;20599;-74
2022/08/21 09:10:09;;;;;;;5.47;3.63;;;;;;;;;;10374414;28;20244;-74
2022/08/21 09:15:22;;;;;;;6.83;3.33;;;;;;;;;;10398484;28;20185;-73
2022/08/21 09:20:41;;;;;;;10.47;3.73;;;;;;;;;;10376276;28;20684;-73
2022/08/21 09:26:02;;;;;;;7.10;3.70;;;;;;;;;;10388693;28;20228;-72
2022/08/21 09:31:05;;;;;;;5.17;2.93;;;;;;;;;;10358189;28;20221;-74
2022/08/21 09:36:06;;;;;;;4.80;3.13;;;;;;;;;;10406347;28;20280;-73
2022/08/21 09:41:09;;;;;;;9.63;3.77;;;;;;;;;;10405246;28;20274;-73
2022/08/21 09:46:12;;;;;;;7.40;3.23;;;;;;;;;;10379668;28;20233;-74
2022/08/21 09:51:20;;;;;;;5.40;3.30;;;;;;;;;;10372684;28;20575;-73
2022/08/21 10:01:48;;;;;;;5.97;2.87;;;;;;;;;;10395481;28;20225;-74
2022/08/21 10:06:49;;;;;;;5.67;3.07;;;;;;;;;;10375796;28;20224;-72
2022/08/21 10:12:00;;;;;;;6.77;3.40;;;;;;;;;;10404792;28;20270;-73
2022/08/21 10:17:08;;;;;;;5.93;3.10;;;;;;;;;;10401886;28;20593;-73
2022/08/21 10:22:15;;;;;;;5.90;3.30;;;;;;;;;;10396391;28;20220;-73
2022/08/21 10:27:31;;;;;;;9.33;3.50;;;;;;;;;;10386313;28;20636;-74
2022/08/21 10:32:35;;;;;;;4.93;3.08;;;;;;;;;;10401558;28;20227;-74
2022/08/21 10:37:48;;;;;;;6.33;2.93;;;;;;;;;;10396378;28;20224;-74
2022/08/21 10:43:07;;;;;;;6.23;3.10;;;;;;;;;;10396165;28;20225;-73
2022/08/21 10:48:11;;;;;;;8.93;3.13;;;;;;;;;;10388188;28;20320;-73
2022/08/21 10:53:31;;;;;;;6.43;3.37;;;;;;;;;;10395862;28;20225;-73
2022/08/21 10:58:36;;;;;;;7.17;3.43;;;;;;;;;;10394281;28;20316;-73
2022/08/21 11:03:51;;;;;;;6.87;3.07;;;;;;;;;;10399724;28;20312;-72
2022/08/21 11:08:57;;;;;;;5.97;3.10;;;;;;;;;;10402966;28;20231;-73
2022/08/21 11:14:01;;;;;;;4.57;3.00;;;;;;;;;;10401265;28;20228;-72
2022/08/21 11:19:05;;;;;;;5.90;3.53;;;;;;;;;;10371043;28;20311;-73
2022/08/21 11:24:25;;;;;;;4.53;3.20;;;;;;;;;;10396330;28;20781;-72
2022/08/21 11:29:34;;;;;;;8.10;3.30;;;;;;;;;;10384312;28;20228;-73
2022/08/21 11:34:57;;;;;;;7.13;3.57;;;;;;;;;;10382831;28;20227;-73
2022/08/21 11:40:25;;;;;;;7.87;3.57;;;;;;;;;;10392181;28;20581;-72
2022/08/21 11:45:52;;;;;;;6.30;3.20;;;;;;;;;;10357984;28;20596;-72
2022/08/21 11:50:57;;;;;;;6.93;3.10;;;;;;;;;;10370127;28;20892;-72
2022/08/21 11:56:06;;;;;;;7.93;3.60;;;;;;;;;;10384330;28;20224;-73
2022/08/21 12:01:09;;;;;;;5.27;3.07;;;;;;;;;;10394498;28;20232;-72
2022/08/21 12:06:12;;;;;;;6.60;3.37;;;;;;;;;;10385979;28;20226;-72
2022/08/21 12:11:16;;;;;;;5.83;3.10;;;;;;;;;;10389551;28;20209;-72
2022/08/21 12:16:28;;;;;;;5.80;3.20;;;;;;;;;;10398590;28;20320;-72
2022/08/21 12:21:38;;;;;;;7.43;3.00;;;;;;;;;;10401279;28;20715;-72
2022/08/21 12:26:56;;;;;;;7.23;3.10;;;;;;;;;;10402922;28;20231;-72
2022/08/21 12:32:05;;;;;;;6.00;2.90;;;;;;;;;;10394912;28;20319;-72
2022/08/21 12:37:27;;;;;;;5.30;2.93;;;;;;;;;;10387478;28;20232;-72
2022/08/21 12:42:37;;;;;;;5.40;2.93;;;;;;;;;;10393633;28;20225;-70
2022/08/21 12:47:51;;;;;;;8.90;2.97;;;;;;;;;;10395051;28;20223;-72
2022/08/21 12:53:01;;;;;;;4.90;2.90;;;;;;;;;;10383613;28;20584;-71
2022/08/21 12:58:05;;;;;;;3.37;2.50;;;;;;;;;;10395772;28;20258;-71
2022/08/21 13:03:07;;;;;;;6.30;3.07;;;;;;;;;;10399206;28;20227;-72
2022/08/21 13:08:10;;;;;;;6.97;3.07;;;;;;;;;;10399993;28;20232;-72
2022/08/21 13:13:14;;;;;;;5.90;2.90;;;;;;;;;;10406115;28;20817;-76
2022/08/21 13:18:29;;;;;;;6.53;3.13;;;;;;;;;;10385600;28;20715;-71
2022/08/21 13:23:30;;;;;;;4.37;2.83;;;;;;;;;;10391624;28;20664;-71
2022/08/21 13:28:37;;;;;;;4.87;2.83;;;;;;;;;;10404520;28;20260;-70
2022/08/21 13:33:39;;;;;;;5.50;3.03;;;;;;;;;;10381234;28;20253;-70
2022/08/21 13:38:59;;;;;;;5.57;2.90;;;;;;;;;;10413202;28;20224;-71
2022/08/21 13:44:07;;;;;;;4.60;2.90;;;;;;;;;;10398255;28;20311;-72
2022/08/21 13:49:09;;;;;;;7.90;3.53;;;;;;;;;;10407364;28;20221;-72
2022/08/21 13:54:22;;;;;;;4.53;3.00;;;;;;;;;;10382358;28;20214;-71
2022/08/21 13:59:28;;;;;;;6.07;2.93;;;;;;;;;;10399024;28;20224;-72
2022/08/21 14:04:37;;;;;;;8.03;3.07;;;;;;;;;;10374252;28;20580;-72
2022/08/21 14:09:42;;;;;;;5.23;2.67;;;;;;;;;;10396318;28;20229;-72
2022/08/21 14:14:44;;;;;;;5.77;2.93;;;;;;;;;;10388744;28;20587;-72
2022/08/21 14:19:49;;;;;;;4.90;2.67;;;;;;;;;;10398624;28;20204;-72
2022/08/21 14:25:00;;;;;;;4.07;2.70;;;;;;;;;;10400873;28;20225;-72
2022/08/21 14:30:02;;;;;;;5.13;2.60;;;;;;;;;;10398670;28;20225;-72
2022/08/21 14:35:03;;;;;;;3.57;2.40;;;;;;;;;;10403145;28;20212;-72
2022/08/21 14:40:05;;;;;;;4.33;2.67;;;;;;;;;;10371089;28;20232;-71
2022/08/21 14:45:11;;;;;;;5.07;2.53;;;;;;;;;;10377232;28;20204;-71
2022/08/21 14:50:13;;;;;;;4.40;2.43;;;;;;;;;;10400092;28;20204;-71
2022/08/21 14:55:14;;;;;;;7.93;3.03;;;;;;;;;;10398836;28;20287;-71
2022/08/21 15:00:17;;;;;;;4.97;2.70;;;;;;;;;;10394061;28;20181;-70
2022/08/21 15:05:19;;;;;;;5.17;2.70;;;;;;;;;;10395925;28;20696;-71
2022/08/21 15:10:20;;;;;;;5.30;2.33;;;;;;;;;;10410543;28;20222;-71
2022/08/21 15:15:21;;;;;;;4.60;2.50;;;;;;;;;;10397987;28;20260;-72
2022/08/21 15:20:25;;;;;;;4.67;2.43;;;;;;;;;;10378130;28;20192;-71
2022/08/21 15:25:26;;;;;;;5.00;2.60;;;;;;;;;;10385698;28;20768;-72
2022/08/21 15:30:28;;;;;;;5.43;2.50;;;;;;;;;;10388572;28;20298;-71
2022/08/21 15:35:29;;;;;;;4.03;2.30;;;;;;;;;;10393488;28;20244;-73
2022/08/21 15:40:30;;;;;;;8.57;2.40;;;;;;;;;;10400202;28;20820;-72
2022/08/21 15:45:35;;;;;;;4.73;2.23;;;;;;;;;;10393318;28;20362;-70
2022/08/21 15:50:36;;;;;;;4.37;2.30;;;;;;;;;;10400030;28;20330;-70
2022/08/21 15:55:37;;;;;;;5.00;2.60;;;;;;;;;;10372597;28;20232;-69
2022/08/21 16:00:38;;;;;;;4.30;2.77;;;;;;;;;;10398922;28;20571;-69
2022/08/21 16:05:42;;;;;;;5.23;2.47;;;;;;;;;;10398523;28;20221;-67
2022/08/21 16:10:43;;;;;;;5.60;2.70;;;;;;;;;;10394700;28;20232;-67
2022/08/21 16:15:44;;;;;;;3.77;2.17;;;;;;;;;;10398501;28;20222;-69
2022/08/21 16:20:48;;;;;;;5.83;2.93;;;;;;;;;;10390199;28;20476;-68
2022/08/21 16:25:50;;;;;;;7.13;2.80;;;;;;;;;;10392974;28;20228;-68
2022/08/21 16:30:57;;;;;;;5.30;2.53;;;;;;;;;;10382273;28;20247;-68
2022/08/21 16:35:59;;;;;;;7.33;2.17;;;;;;;;;;10400789;28;20230;-69
2022/08/21 16:41:08;;;;;;;4.83;2.50;;;;;;;;;;10407157;28;20227;-68
2022/08/21 16:46:10;;;;;;;4.10;2.50;;;;;;;;;;10409268;28;20224;-67
2022/08/21 16:51:12;;;;;;;4.17;2.30;;;;;;;;;;10385758;28;20220;-67
2022/08/21 16:56:15;;;;;;;4.83;3.07;;;;;;;;;;10400990;28;20223;-67
2022/08/21 17:01:18;;;;;;;4.53;2.40;;;;;;;;;;10392165;28;20214;-68
2022/08/21 17:06:21;;;;;;;5.50;2.90;;;;;;;;;;10402045;28;20236;-67
2022/08/21 17:11:26;;;;;;;4.90;2.57;;;;;;;;;;10381336;28;20211;-67
2022/08/21 17:16:28;;;;;;;4.53;2.43;;;;;;;;;;10392554;28;20254;-66
2022/08/21 17:21:29;;;;;;;7.20;2.80;;;;;;;;;;10394763;28;20595;-67
2022/08/21 17:26:30;;;;;;;5.20;2.43;;;;;;;;;;10385556;28;20232;-67
2022/08/21 17:31:31;;;;;;;4.93;2.93;;;;;;;;;;10400457;28;20221;-67
2022/08/21 17:36:33;;;;;;;6.90;3.40;;;;;;;;;;10389009;28;20234;-68
2022/08/21 17:41:37;;;;;;;3.43;2.60;;;;;;;;;;10393854;28;20224;-68
2022/08/21 17:46:38;;;;;;;5.40;2.63;;;;;;;;;;10395919;28;20239;-66
2022/08/21 17:51:39;;;;;;;4.60;2.73;;;;;;;;;;10400069;28;20627;-67
2022/08/21 17:56:41;;;;;;;6.43;3.03;;;;;;;;;;10388204;28;20225;-66
2022/08/21 18:01:43;;;;;;;7.37;3.97;;;;;;;;;;10403201;28;20220;-68
2022/08/21 18:06:44;;;;;;;5.53;3.53;;;;;;;;;;10399803;28;20244;-67
2022/08/21 18:11:45;;;;;;;4.87;3.03;;;;;;;;;;10381660;28;20221;-68
2022/08/21 18:16:46;;;;;;;3.23;2.90;;;;;;;;;;10384596;28;20312;-67
2022/08/21 18:21:50;;;;;;;5.63;2.77;;;;;;;;;;10402565;28;20267;-68
2022/08/21 18:26:52;;;;;;;4.13;3.30;;;;;;;;;;10388836;28;20297;-67
2022/08/21 18:31:53;;;;;;;5.03;3.63;;;;;;;;;;10391279;28;20239;-67
2022/08/21 18:36:58;;;;;;;6.37;3.50;;;;;;;;;;10383853;28;20231;-67
2022/08/21 18:42:00;;;;;;;5.33;3.53;;;;;;;;;;10394844;28;20300;-67
2022/08/21 18:47:03;;;;;;;7.07;3.63;;;;;;;;;;10394064;28;20276;-67
2022/08/21 18:52:04;;;;;;;6.23;3.67;;;;;;;;;;10396332;28;20249;-67
2022/08/21 18:57:05;;;;;;;6.60;3.67;;;;;;;;;;10402299;28;20224;-67
2022/08/21 19:02:07;;;;;;;7.57;3.70;;;;;;;;;;10409798;28;20217;-67
2022/08/21 19:07:08;;;;;;;7.57;4.53;;;;;;;;;;10396600;28;20224;-67
2022/08/21 19:12:13;;;;;;;7.23;4.00;;;;;;;;;;10388684;28;20221;-66
2022/08/21 19:17:14;;;;;;;6.90;4.10;;;;;;;;;;10390003;28;20227;-67
2022/08/21 19:22:15;;;;;;;5.63;3.57;;;;;;;;;;10403578;28;20221;-68
2022/08/21 19:27:16;;;;;;;6.40;3.90;;;;;;;;;;10391464;28;20219;-68
2022/08/21 19:32:17;;;;;;;7.00;3.60;;;;;;;;;;10403225;28;20391;-68
2022/08/21 19:37:19;;;;;;;8.30;3.50;;;;;;;;;;10407615;28;20228;-68
2022/08/21 19:42:20;;;;;;;5.77;3.90;;;;;;;;;;10390426;28;20205;-67
2022/08/21 19:47:23;;;;;;;6.87;3.67;;;;;;;;;;10402359;28;20763;-67
2022/08/21 19:52:24;;;;;;;8.37;4.10;;;;;;;;;;10402738;28;20220;-68
2022/08/21 19:57:25;;;;;;;6.30;3.90;;;;;;;;;;10394365;28;20224;-68
2022/08/21 20:02:26;;;;;;;7.97;4.43;;;;;;;;;;10407513;28;20231;-70
2022/08/21 20:07:32;;;;;;;6.43;3.57;;;;;;;;;;10387331;28;20224;-68
2022/08/21 20:12:33;;;;;;;5.27;3.67;;;;;;;;;;10398963;28;20221;-69
2022/08/21 20:17:34;;;;;;;7.37;3.80;;;;;;;;;;10385529;28;20221;-68
2022/08/21 20:33:52;;;;;;;6.40;4.00;;;22.50;61.90;;;;;;10585316;27;20450;-70
2022/08/21 20:38:53;;;;;;;4.37;2.90;;;22.00;63.20;;;;;;10548599;28;20275;-71
2022/08/21 20:43:55;;;;;;;5.57;3.07;;;22.00;62.70;;;;;;10551198;27;20220;-71
2022/08/21 20:49:00;;;;;;;6.33;3.23;;;21.90;63.00;;;;;;10546945;28;20310;-73
2022/08/21 20:54:07;;;;;;;9.00;3.40;;;21.90;62.50;;;;;;10550154;27;20582;-71
2022/08/21 20:59:19;;;;;;;6.23;3.40;;;21.80;61.60;;;;;;10542587;27;20223;-73
2022/08/21 21:04:36;;;;;;;6.33;3.17;;;21.80;61.70;;;;;;10517897;28;20215;-72
2022/08/21 21:09:43;;;;;;;4.83;3.20;;;21.80;62.20;;;;;;10539423;28;20963;-73
2022/08/21 21:14:50;;;;;;;6.03;3.67;;;21.80;62.10;;;;;;10553877;27;20626;-73
2022/08/21 21:19:56;;;;;;;5.70;3.20;;;21.70;63.00;;;;;;10548187;27;20215;-71
2022/08/21 21:25:04;;;;;;;4.97;3.47;;;21.60;63.20;;;;;;10551407;27;20256;-72
2022/08/21 21:30:20;;;;;;;5.57;2.93;;;21.50;63.60;;;;;;10546100;28;20230;-72
2022/08/21 21:35:26;;;;;;;4.87;3.40;;;21.30;65.50;;;;;;10533336;28;20212;-71
2022/08/21 21:40:27;;;;;;;6.47;4.00;;;21.10;66.80;;;;;;10545519;27;20214;-70
2022/08/21 21:45:36;;;;;;;5.93;3.80;;;21.10;66.40;;;;;;10541549;28;20211;-72
2022/08/21 21:50:57;;;;;;;6.90;3.50;;;21.10;65.40;;;;;;10551033;27;20236;-73
2022/08/21 21:56:24;;;;;;;6.30;2.70;;;21.10;64.20;;;;;;10554786;27;20211;-72
2022/08/21 22:01:37;;;;;;;4.43;2.77;;;21.20;62.70;;;;;;10533951;28;20211;-71
2022/08/21 22:07:14;;;;;;;5.13;2.87;;;21.30;62.00;;;;;;10557243;27;20212;-72
2022/08/21 22:12:29;;;;;;;2.57;2.13;;;21.30;61.60;;;;;;10515822;28;20298;-73
2022/08/21 22:17:35;;;;;;;4.70;2.30;;;21.30;61.10;;;;;;10510544;28;20215;-73
2022/08/21 22:22:38;;;;;;;4.80;2.20;;;21.20;61.00;;;;;;10519526;28;20336;-73
2022/08/21 22:27:40;;;;;;;4.70;2.30;;;21.00;62.60;;;;;;10518250;28;20221;-73
2022/08/21 22:32:45;;;;;;;3.10;2.10;;;20.90;63.30;;;;;;10501774;28;20223;-73
2022/08/21 22:37:56;;;;;;;5.13;2.50;;;20.70;64.00;;;;;;10515766;28;20287;-70
2022/08/21 22:43:00;;;;;;;4.57;2.67;;;20.50;64.90;;;;;;10518222;28;20230;-74
2022/08/21 22:48:08;;;;;;;5.73;2.43;;;20.50;65.20;;;;;;10520487;28;20215;-74
2022/08/21 22:53:09;;;;;;;6.93;2.60;;;20.50;65.10;;;;;;10515114;28;20642;-71
2022/08/21 22:58:17;;;;;;;9.67;2.80;;;20.50;65.10;;;;;;10517349;28;20727;-72
2022/08/21 23:03:40;;;;;;;4.70;2.30;;;20.50;65.20;;;;;;10505785;28;20403;-72
2022/08/21 23:08:40;;;;;;;6.80;2.10;;;20.50;65.60;;;;;;10511481;28;20227;-72
2022/08/21 23:13:44;;;;;;;4.70;2.43;;;20.40;65.90;;;;;;10518991;28;20214;-72
2022/08/21 23:18:54;;;;;;;4.97;2.47;;;20.40;66.20;;;;;;10515517;28;20241;-74
2022/08/21 23:24:36;;;;;;;4.37;2.33;;;20.40;66.70;;;;;;10509761;28;20224;-74
2022/08/21 23:30:00;;;;;;;2.90;1.90;;;20.40;67.00;;;;;;10498169;28;20257;-72
2022/08/21 23:41:02;;;;;;;4.80;2.13;;;20.30;67.60;;;;;;10511794;28;20234;-74
2022/08/21 23:46:36;;;;;;;4.63;1.93;;;20.20;68.00;;;;;;10533469;27;20221;-74
2022/08/21 23:52:05;;;;;;;5.87;2.10;;;20.10;68.70;;;;;;10513603;28;20290;-70
2022/08/21 23:57:42;;;;;;;7.27;2.30;;;20.00;69.20;;;;;;10513758;28;20219;-73
